createdAt,value
2022-09-30T00:00:40.521Z,100450.56
2022-09-30T00:03:07.910Z,100455.63
2022-09-30T00:05:37.182Z,100445.38
2022-09-30T00:08:04.633Z,100448.84
2022-09-30T00:10:33.538Z,100451.09
2022-09-30T00:13:00.784Z,100453.66
2022-09-30T00:15:28.521Z,100445.19
2022-09-30T00:17:55.868Z,100454.59
2022-09-30T00:20:23.300Z,100456.69
2022-09-30T00:22:50.606Z,100455.22
2022-09-30T00:25:18.584Z,100451.72
2022-09-30T00:27:45.830Z,100451.97
2022-09-30T00:30:12.988Z,100448.78
2022-09-30T00:32:40.580Z,100441.88
2022-09-30T00:35:08.046Z,100439.69
2022-09-30T00:37:35.533Z,100439.56
2022-09-30T00:40:02.870Z,100438.69
2022-09-30T00:42:31.784Z,100441.56
2022-09-30T00:45:06.073Z,100447.16
2022-09-30T00:47:51.762Z,100444.94
2022-09-30T00:50:26.265Z,100439.81
2022-09-30T00:53:29.903Z,100443.84
2022-09-30T00:56:07.466Z,100444.09
2022-09-30T00:58:40.187Z,100438.84
2022-09-30T01:01:07.571Z,100436.97
2022-09-30T01:03:50.475Z,100435.59
2022-09-30T01:06:18.923Z,100430.16
2022-09-30T01:08:48.003Z,100426.75
2022-09-30T01:11:15.490Z,100425.22
2022-09-30T01:13:45.468Z,100433.50
2022-09-30T01:16:37.489Z,100432.13
2022-09-30T01:19:29.499Z,100428.00
2022-09-30T01:22:24.780Z,100433.75
2022-09-30T01:24:57.717Z,100433.19
2022-09-30T01:28:15.906Z,100432.66
2022-09-30T01:31:43.969Z,100434.69
2022-09-30T01:34:19.944Z,100438.00
2022-09-30T01:37:10.846Z,100436.47
2022-09-30T01:40:04.025Z,100440.31
2022-09-30T01:42:52.041Z,100447.78
2022-09-30T01:45:33.540Z,100454.50
2022-09-30T01:48:06.524Z,100455.50
2022-09-30T01:50:56.268Z,100444.66
2022-09-30T01:53:34.033Z,100449.22
2022-09-30T01:56:06.336Z,100452.78
2022-09-30T01:58:58.172Z,100457.53
2022-09-30T02:01:39.250Z,100448.53
2022-09-30T02:04:19.773Z,100436.66
2022-09-30T02:06:52.369Z,100441.53
2022-09-30T02:09:28.587Z,100443.41
2022-09-30T02:11:56.554Z,100431.25
2022-09-30T02:14:28.582Z,100441.09
2022-09-30T02:17:02.334Z,100445.19
2022-09-30T02:19:51.118Z,100459.31
2022-09-30T02:22:21.542Z,100460.88
2022-09-30T02:24:55.588Z,100450.53
2022-09-30T02:27:32.003Z,100458.25
2022-09-30T02:30:00.844Z,100459.66
2022-09-30T02:32:31.939Z,100471.75
2022-09-30T02:35:06.578Z,100461.97
2022-09-30T02:37:39.470Z,100466.94
2022-09-30T02:40:10.440Z,100465.28
2022-09-30T02:42:38.781Z,100463.53
2022-09-30T02:45:10.295Z,100470.34
2022-09-30T02:47:55.894Z,100471.44
2022-09-30T02:50:31.524Z,100472.53
2022-09-30T02:53:18.914Z,100479.34
2022-09-30T02:55:51.437Z,100477.00
2022-09-30T02:58:21.406Z,100473.13
2022-09-30T03:00:52.935Z,100471.63
2022-09-30T03:03:23.286Z,100466.75
2022-09-30T03:05:53.636Z,100474.41
2022-09-30T03:08:21.279Z,100468.66
2022-09-30T03:10:50.980Z,100475.50
2022-09-30T03:13:31.773Z,100477.00
2022-09-30T03:15:59.492Z,100477.00
2022-09-30T03:18:45.630Z,100487.56
2022-09-30T03:21:32.128Z,100474.84
2022-09-30T03:24:17.190Z,100485.22
2022-09-30T03:27:06.516Z,100479.47
2022-09-30T03:29:36.630Z,100478.78
2022-09-30T03:32:30.046Z,100484.06
2022-09-30T03:35:03.380Z,100479.47
2022-09-30T03:37:49.291Z,100485.59
2022-09-30T03:40:22.394Z,100489.00
2022-09-30T03:43:20.530Z,100485.28
2022-09-30T03:46:01.267Z,100492.59
2022-09-30T03:48:29.689Z,100495.13
2022-09-30T03:50:57.223Z,100500.25
2022-09-30T03:53:27.870Z,100492.63
2022-09-30T03:55:55.277Z,100498.97
2022-09-30T03:58:23.622Z,100494.59
2022-09-30T04:00:53.311Z,100496.50
2022-09-30T04:03:22.074Z,100497.56
2022-09-30T04:05:51.501Z,100496.44
2022-09-30T04:08:18.722Z,100479.81
2022-09-30T04:10:46.067Z,100489.25
2022-09-30T04:13:13.298Z,100502.53
2022-09-30T04:15:40.713Z,100509.41
2022-09-30T04:18:08.269Z,100502.66
2022-09-30T04:20:35.546Z,100508.78
2022-09-30T04:23:03.946Z,100515.25
2022-09-30T04:25:31.264Z,100516.09
2022-09-30T04:27:58.540Z,100504.69
2022-09-30T04:30:29.042Z,100501.47
2022-09-30T04:32:58.775Z,100501.97
2022-09-30T04:35:28.392Z,100496.88
2022-09-30T04:37:55.629Z,100506.41
2022-09-30T04:40:23.114Z,100505.03
2022-09-30T04:42:50.298Z,100486.81
2022-09-30T04:45:17.580Z,100490.91
2022-09-30T04:47:47.597Z,100493.25
2022-09-30T04:50:17.064Z,100505.31
2022-09-30T04:52:44.501Z,100517.56
2022-09-30T04:55:11.916Z,100512.31
2022-09-30T04:57:39.582Z,100504.28
2022-09-30T05:00:09.364Z,100506.34
2022-09-30T05:02:36.671Z,100501.03
2022-09-30T05:05:04.722Z,100506.66
2022-09-30T05:07:32.193Z,100514.31
2022-09-30T05:09:59.476Z,100504.63
2022-09-30T05:12:27.236Z,100504.94
2022-09-30T05:14:55.094Z,100503.25
2022-09-30T05:17:32.519Z,100518.88
2022-09-30T05:20:02.837Z,100529.94
2022-09-30T05:22:33.139Z,100535.38
2022-09-30T05:25:00.323Z,100530.97
2022-09-30T05:27:27.825Z,100513.09
2022-09-30T05:29:55.358Z,100515.63
2022-09-30T05:32:22.718Z,100520.22
2022-09-30T05:34:54.506Z,100523.97
2022-09-30T05:37:22.109Z,100534.00
2022-09-30T05:39:49.670Z,100547.94
2022-09-30T05:42:17.512Z,100561.22
2022-09-30T05:44:44.873Z,100558.50
2022-09-30T05:47:12.414Z,100557.47
2022-09-30T05:49:42.215Z,100562.75
2022-09-30T05:52:09.498Z,100575.38
2022-09-30T05:54:36.717Z,100587.78
2022-09-30T05:57:04.365Z,100596.78
2022-09-30T05:59:31.671Z,100603.25
2022-09-30T06:01:58.889Z,100595.09
2022-09-30T06:04:27.605Z,100581.66
2022-09-30T06:06:54.873Z,100589.81
2022-09-30T06:09:24.162Z,100602.59
2022-09-30T06:11:51.805Z,100589.81
2022-09-30T06:14:21.924Z,100586.06
2022-09-30T06:16:49.962Z,100581.66
2022-09-30T06:19:17.213Z,100568.19
2022-09-30T06:21:44.354Z,100556.81
2022-09-30T06:24:13.264Z,100553.91
2022-09-30T06:26:42.394Z,100534.84
2022-09-30T06:29:09.684Z,100528.72
2022-09-30T06:31:37.008Z,100514.59
2022-09-30T06:34:04.713Z,100511.03
2022-09-30T06:36:33.445Z,100513.06
2022-09-30T06:39:05.011Z,100526.47
2022-09-30T06:41:33.897Z,100529.06
2022-09-30T06:44:05.993Z,100523.94
2022-09-30T06:46:37.608Z,100529.56
2022-09-30T06:49:13.696Z,100538.72
2022-09-30T06:51:42.708Z,100545.03
2022-09-30T06:54:10.592Z,100548.75
2022-09-30T06:56:37.861Z,100565.47
2022-09-30T06:59:05.589Z,100565.47
2022-09-30T07:01:32.904Z,100559.53
2022-09-30T07:04:08.057Z,100558.69
2022-09-30T07:06:35.611Z,100567.22
2022-09-30T07:09:02.957Z,100553.66
2022-09-30T07:11:30.628Z,100563.19
2022-09-30T07:13:57.916Z,100570.44
2022-09-30T07:16:27.861Z,100568.72
2022-09-30T07:18:55.193Z,100576.25
2022-09-30T07:21:22.601Z,100586.47
2022-09-30T07:23:49.797Z,100591.91
2022-09-30T07:26:19.359Z,100599.59
2022-09-30T07:28:47.435Z,100611.38
2022-09-30T07:31:34.684Z,100621.41
2022-09-30T07:34:07.068Z,100625.81
2022-09-30T07:36:37.909Z,100625.44
2022-09-30T07:39:08.488Z,100621.84
2022-09-30T07:41:39.019Z,100620.66
2022-09-30T07:44:12.256Z,100608.06
2022-09-30T07:46:40.607Z,100599.69
2022-09-30T07:49:14.610Z,100601.84
2022-09-30T07:51:45.855Z,100601.31
2022-09-30T07:54:16.037Z,100606.63
2022-09-30T07:57:08.844Z,100616.31
2022-09-30T07:59:35.299Z,100616.63
2022-09-30T08:02:02.914Z,100607.06
2022-09-30T08:04:30.689Z,100606.34
2022-09-30T08:07:00.298Z,100601.63
2022-09-30T08:09:29.967Z,100596.41
2022-09-30T08:11:57.460Z,100601.44
2022-09-30T08:14:26.888Z,100617.94
2022-09-30T08:16:55.891Z,100618.50
2022-09-30T08:19:24.624Z,100618.56
2022-09-30T08:21:55.866Z,100615.84
2022-09-30T08:24:30.362Z,100624.59
2022-09-30T08:26:58.419Z,100624.59
2022-09-30T08:32:13.230Z,100627.56
2022-09-30T08:34:40.421Z,100641.78
2022-09-30T08:37:12.717Z,100644.38
2022-09-30T08:39:40.066Z,100652.44
2022-09-30T08:42:35.957Z,100662.84
2022-09-30T08:45:13.383Z,100659.44
2022-09-30T08:48:02.554Z,100649.31
2022-09-30T08:51:07.373Z,100663.34
2022-09-30T08:53:43.031Z,100669.22
2022-09-30T08:56:26.177Z,100670.94
2022-09-30T08:58:57.147Z,100660.22
2022-09-30T09:01:29.769Z,100661.94
2022-09-30T09:03:59.819Z,100678.69
2022-09-30T09:06:27.467Z,100665.22
2022-09-30T09:09:19.521Z,100657.41
2022-09-30T09:11:55.811Z,100669.78
2022-09-30T09:14:28.597Z,100695.19
2022-09-30T09:17:18.270Z,100692.97
2022-09-30T09:20:05.627Z,100700.59
2022-09-30T09:22:34.522Z,100699.03
2022-09-30T09:25:02.226Z,100702.63
2022-09-30T09:27:53.999Z,100694.13
2022-09-30T09:30:23.352Z,100700.41
2022-09-30T09:32:55.351Z,100706.88
2022-09-30T09:35:22.991Z,100712.16
2022-09-30T09:38:23.384Z,100717.28
2022-09-30T09:41:12.881Z,100720.53
2022-09-30T09:44:04.719Z,100716.63
2022-09-30T09:46:45.637Z,100713.91
2022-09-30T09:49:23.629Z,100723.09
2022-09-30T09:52:05.876Z,100719.69
2022-09-30T09:54:37.956Z,100721.91
2022-09-30T09:57:09.412Z,100723.78
2022-09-30T09:59:56.229Z,100717.47
2022-09-30T10:02:31.684Z,100721.72
2022-09-30T10:05:03.953Z,100711.53
2022-09-30T10:07:33.320Z,100697.56
2022-09-30T10:10:23.545Z,100680.69
2022-09-30T10:12:51.749Z,100674.75
2022-09-30T10:15:24.142Z,100677.09
2022-09-30T10:17:57.854Z,100663.84
2022-09-30T10:20:33.924Z,100664.53
2022-09-30T10:23:16.409Z,100650.22
2022-09-30T10:26:16.712Z,100645.97
2022-09-30T10:28:59.682Z,100642.75
2022-09-30T10:31:36.365Z,100645.47
2022-09-30T10:34:29.976Z,100660.25
2022-09-30T10:36:59.086Z,100660.56
2022-09-30T10:39:29.250Z,100668.53
2022-09-30T10:42:26.302Z,100667.09
2022-09-30T10:45:01.998Z,100668.88
2022-09-30T10:47:34.115Z,100672.19
2022-09-30T10:50:27.833Z,100672.06
2022-09-30T10:52:57.788Z,100674.72
2022-09-30T10:55:29.245Z,100682.06
2022-09-30T10:58:04.878Z,100670.56
2022-09-30T11:00:35.631Z,100676.41
2022-09-30T11:03:20.402Z,100675.84
2022-09-30T11:05:49.971Z,100684.25
2022-09-30T11:08:22.373Z,100685.56
2022-09-30T11:11:14.252Z,100674.31
2022-09-30T11:14:29.512Z,100663.56
2022-09-30T11:17:10.681Z,100649.75
2022-09-30T11:19:49.225Z,100648.81
2022-09-30T11:22:28.631Z,100653.84
2022-09-30T11:24:57.346Z,100633.41
2022-09-30T11:27:27.676Z,100628.06
2022-09-30T11:29:59.766Z,100641.09
2022-09-30T11:32:41.982Z,100638.72
2022-09-30T11:35:30.865Z,100637.94
2022-09-30T11:38:10.347Z,100638.63
2022-09-30T11:41:06.827Z,100627.72
2022-09-30T11:44:08.185Z,100625.19
2022-09-30T11:46:47.466Z,100614.50
2022-09-30T11:49:28.455Z,100618.59
2022-09-30T11:52:16.909Z,100618.59
2022-09-30T11:55:06.537Z,100614.59
2022-09-30T11:58:22.715Z,100614.44
2022-09-30T12:01:21.836Z,100617.81
2022-09-30T12:04:16.817Z,100619.13
2022-09-30T12:06:53.343Z,100635.56
2022-09-30T12:09:23.073Z,100626.47
2022-09-30T12:12:10.243Z,100626.19
2022-09-30T12:14:50.912Z,100632.44
2022-09-30T12:17:26.889Z,100626.09
2022-09-30T12:19:56.476Z,100641.69
2022-09-30T12:22:23.806Z,100629.91
2022-09-30T12:24:50.992Z,100644.56
2022-09-30T12:30:18.083Z,100647.47
2022-09-30T12:33:05.659Z,100652.19
2022-09-30T12:35:54.589Z,100643.09
2022-09-30T12:38:50.835Z,100639.44
2022-09-30T12:41:27.142Z,100648.31
2022-09-30T12:43:56.976Z,100649.25
2022-09-30T12:46:39.583Z,100650.34
2022-09-30T12:49:10.916Z,100655.72
2022-09-30T12:51:42.951Z,100651.78
2022-09-30T12:54:32.958Z,100650.41
2022-09-30T12:57:04.072Z,100655.28
2022-09-30T12:59:34.912Z,100649.91
2022-09-30T13:02:04.316Z,100658.91
2022-09-30T13:04:37.832Z,100651.28
2022-09-30T13:07:08.330Z,100656.06
2022-09-30T13:09:38.703Z,100655.06
2022-09-30T13:12:06.652Z,100672.16
2022-09-30T13:14:35.048Z,100667.97
2022-09-30T13:17:08.409Z,100666.34
2022-09-30T13:19:36.864Z,100662.88
2022-09-30T13:22:32.408Z,100658.53
2022-09-30T13:25:06.742Z,100652.28
2022-09-30T13:27:41.810Z,100651.31
2022-09-30T13:30:18.182Z,100651.19
2022-09-30T13:33:04.980Z,100651.53
2022-09-30T13:35:34.434Z,100638.38
2022-09-30T13:38:10.642Z,100644.22
2022-09-30T13:41:03.651Z,100638.28
2022-09-30T13:43:39.899Z,100651.75
2022-09-30T13:46:19.201Z,100646.72
2022-09-30T13:48:55.274Z,100645.97
2022-09-30T13:51:25.097Z,100644.81
2022-09-30T13:53:55.563Z,100642.81
2022-09-30T13:56:26.205Z,100643.22
2022-09-30T13:58:53.425Z,100646.66
2022-09-30T14:01:26.277Z,100654.53
2022-09-30T14:04:47.915Z,100655.78
2022-09-30T14:07:52.400Z,100659.38
2022-09-30T14:10:43.952Z,100662.91
2022-09-30T14:13:26.104Z,100659.53
2022-09-30T14:16:06.440Z,100666.22
2022-09-30T14:18:39.894Z,100663.94
2022-09-30T14:21:20.394Z,100662.75
2022-09-30T14:24:11.472Z,100664.06
2022-09-30T14:27:03.230Z,100665.25
2022-09-30T14:29:50.054Z,100668.13
2022-09-30T14:32:20.897Z,100668.72
2022-09-30T14:35:45.671Z,100663.59
2022-09-30T14:38:32.768Z,100677.38
2022-09-30T14:41:07.955Z,100670.50
2022-09-30T14:43:42.577Z,100669.13
2022-09-30T14:46:24.960Z,100672.16
2022-09-30T14:48:53.520Z,100666.75
2022-09-30T14:51:23.744Z,100667.44
2022-09-30T14:53:57.058Z,100669.22
2022-09-30T14:56:31.823Z,100669.31
2022-09-30T14:59:00.960Z,100669.78
2022-09-30T15:01:35.099Z,100672.81
2022-09-30T15:04:11.456Z,100664.19
2022-09-30T15:06:41.384Z,100660.38
2022-09-30T15:09:17.862Z,100656.59
2022-09-30T15:11:45.350Z,100669.66
2022-09-30T15:14:16.181Z,100669.44
2022-09-30T15:16:49.088Z,100676.00
2022-09-30T15:19:23.787Z,100674.72
2022-09-30T15:21:52.525Z,100676.88
2022-09-30T15:24:21.887Z,100682.16
2022-09-30T15:26:49.965Z,100679.47
2022-09-30T15:29:17.616Z,100683.31
2022-09-30T15:31:47.783Z,100677.88
2022-09-30T15:34:20.499Z,100685.09
2022-09-30T15:37:07.997Z,100684.97
2022-09-30T15:39:59.502Z,100694.69
2022-09-30T15:42:38.989Z,100687.03
2022-09-30T15:45:35.588Z,100698.50
2022-09-30T15:48:07.018Z,100698.53
2022-09-30T15:50:49.594Z,100703.88
2022-09-30T15:53:24.924Z,100704.53
2022-09-30T15:55:55.698Z,100711.34
2022-09-30T15:58:26.579Z,100705.75
2022-09-30T16:00:55.020Z,100705.41
2022-09-30T16:03:26.678Z,100707.50
2022-09-30T16:06:07.879Z,100691.47
2022-09-30T16:08:43.313Z,100703.94
2022-09-30T16:11:20.572Z,100709.22
2022-09-30T16:13:49.780Z,100706.00
2022-09-30T16:16:24.068Z,100709.06
2022-09-30T16:18:55.474Z,100707.88
2022-09-30T16:21:44.147Z,100703.59
2022-09-30T16:24:21.411Z,100713.81
2022-09-30T16:26:55.739Z,100711.28
2022-09-30T16:29:24.021Z,100715.53
2022-09-30T16:31:54.110Z,100717.56
2022-09-30T16:34:26.935Z,100716.22
2022-09-30T16:36:55.505Z,100728.16
2022-09-30T16:39:22.895Z,100716.72
2022-09-30T16:41:54.074Z,100720.16
2022-09-30T16:44:23.540Z,100727.47
2022-09-30T16:46:51.737Z,100730.22
2022-09-30T16:49:19.916Z,100724.75
2022-09-30T16:51:47.323Z,100722.88
2022-09-30T16:54:14.585Z,100724.06
2022-09-30T16:56:42.471Z,100724.38
2022-09-30T16:59:17.572Z,100716.91
2022-09-30T17:01:45.135Z,100713.47
2022-09-30T17:04:15.246Z,100717.22
2022-09-30T17:06:46.153Z,100721.97
2022-09-30T17:09:13.429Z,100725.88
2022-09-30T17:11:42.857Z,100728.09
2022-09-30T17:14:10.231Z,100729.97
2022-09-30T17:16:38.213Z,100728.28
2022-09-30T17:19:06.106Z,100740.22
2022-09-30T17:21:33.494Z,100743.94
2022-09-30T17:24:12.205Z,100739.69
2022-09-30T17:26:40.593Z,100741.56
2022-09-30T17:29:30.933Z,100729.63
2022-09-30T17:31:58.500Z,100740.53
2022-09-30T17:34:28.128Z,100738.47
2022-09-30T17:36:56.572Z,100740.34
2022-09-30T17:39:27.778Z,100735.91
2022-09-30T17:42:13.577Z,100743.91
2022-09-30T17:44:40.968Z,100753.81
2022-09-30T17:47:08.173Z,100750.41
2022-09-30T17:49:35.960Z,100748.38
2022-09-30T17:52:05.632Z,100744.78
2022-09-30T17:54:34.452Z,100752.97
2022-09-30T17:57:04.458Z,100759.78
2022-09-30T17:59:31.941Z,100768.13
2022-09-30T18:01:59.564Z,100752.47
2022-09-30T18:04:28.717Z,100767.63
2022-09-30T18:06:56.912Z,100771.56
2022-09-30T18:09:24.697Z,100766.78
2022-09-30T18:11:53.785Z,100754.00
2022-09-30T18:14:21.049Z,100762.88
2022-09-30T18:16:48.327Z,100759.00
2022-09-30T18:19:16.546Z,100760.88
2022-09-30T18:21:43.909Z,100758.69
2022-09-30T18:24:11.182Z,100764.81
2022-09-30T18:26:41.611Z,100777.25
2022-09-30T18:29:09.392Z,100765.50
2022-09-30T18:31:39.727Z,100767.03
2022-09-30T18:34:13.295Z,100761.41
2022-09-30T18:36:42.521Z,100764.28
2022-09-30T18:39:09.698Z,100758.34
2022-09-30T18:41:43.134Z,100758.84
2022-09-30T18:44:12.870Z,100759.34
2022-09-30T18:46:42.977Z,100754.38
2022-09-30T18:49:10.645Z,100748.41
2022-09-30T18:51:38.293Z,100757.94
2022-09-30T18:54:05.908Z,100750.59
2022-09-30T18:56:33.619Z,100741.38
2022-09-30T18:59:06.020Z,100747.66
2022-09-30T19:01:34.079Z,100754.94
2022-09-30T19:04:03.901Z,100752.72
2022-09-30T19:06:32.151Z,100754.41
2022-09-30T19:09:01.802Z,100743.00
2022-09-30T19:11:30.751Z,100760.53
2022-09-30T19:14:01.534Z,100768.88
2022-09-30T19:16:35.270Z,100767.13
2022-09-30T19:19:06.480Z,100774.63
2022-09-30T19:21:36.357Z,100769.19
2022-09-30T19:24:06.771Z,100770.22
2022-09-30T19:26:36.791Z,100767.94
2022-09-30T19:29:05.893Z,100774.44
2022-09-30T19:31:35.942Z,100782.94
2022-09-30T19:34:04.082Z,100786.66
2022-09-30T19:36:40.610Z,100777.50
2022-09-30T19:39:15.618Z,100780.22
2022-09-30T19:41:44.630Z,100786.34
2022-09-30T19:44:15.858Z,100791.81
2022-09-30T19:46:43.110Z,100785.66
2022-09-30T19:49:11.457Z,100794.53
2022-09-30T19:51:38.952Z,100794.22
2022-09-30T19:54:07.638Z,100799.47
2022-09-30T19:56:36.987Z,100798.63
2022-09-30T19:59:06.006Z,100794.22
2022-09-30T20:01:34.886Z,100787.19
2022-09-30T20:04:05.001Z,100789.38
2022-09-30T20:06:34.320Z,100789.19
2022-09-30T20:09:04.308Z,100781.16
2022-09-30T20:11:36.192Z,100784.25
2022-09-30T20:14:26.937Z,100785.91
2022-09-30T20:16:54.909Z,100788.94
2022-09-30T20:19:23.112Z,100784.34
2022-09-30T20:21:50.774Z,100790.78
2022-09-30T20:24:18.566Z,100790.41
2022-09-30T20:26:50.205Z,100789.03
2022-09-30T20:29:19.880Z,100790.03
2022-09-30T20:31:49.302Z,100793.94
2022-09-30T20:34:18.376Z,100797.69
2022-09-30T20:36:45.912Z,100788.81
2022-09-30T20:39:13.717Z,100790.84
2022-09-30T20:41:41.841Z,100781.81
2022-09-30T20:44:13.835Z,100787.09
2022-09-30T20:46:41.996Z,100787.41
2022-09-30T20:49:09.520Z,100793.88
2022-09-30T20:51:38.165Z,100790.47
2022-09-30T20:54:05.414Z,100790.06
2022-09-30T20:56:50.068Z,100791.28
2022-09-30T20:59:20.451Z,100798.72
2022-09-30T21:01:47.852Z,100799.75
2022-09-30T21:04:15.303Z,100799.38
2022-09-30T21:06:42.721Z,100790.34
2022-09-30T21:09:13.393Z,100799.69
2022-09-30T21:11:42.451Z,100793.69
2022-09-30T21:14:10.090Z,100791.31
2022-09-30T21:16:37.707Z,100787.56
2022-09-30T21:19:05.827Z,100793.16
2022-09-30T21:21:36.516Z,100788.03
2022-09-30T21:24:03.959Z,100790.91
2022-09-30T21:26:31.179Z,100807.69
2022-09-30T21:28:59.986Z,100798.31
2022-09-30T21:31:28.575Z,100804.06
2022-09-30T21:33:59.903Z,100802.66
2022-09-30T21:36:28.194Z,100806.56
2022-09-30T21:39:01.315Z,100806.56
2022-09-30T21:41:33.607Z,100801.25
2022-09-30T21:44:03.194Z,100800.41
2022-09-30T21:46:30.625Z,100801.25
2022-09-30T21:49:14.339Z,100791.41
2022-09-30T21:51:41.992Z,100788.84
2022-09-30T21:54:10.161Z,100781.66
2022-09-30T21:56:38.992Z,100781.16
2022-09-30T21:59:06.881Z,100776.72
2022-09-30T22:01:34.698Z,100770.41
2022-09-30T22:04:03.212Z,100775.56
2022-09-30T22:06:31.337Z,100776.41
2022-09-30T22:09:01.842Z,100783.72
2022-09-30T22:11:31.393Z,100776.56
2022-09-30T22:14:03.946Z,100779.44
2022-09-30T22:16:35.012Z,100785.56
2022-09-30T22:19:05.001Z,100783.00
2022-09-30T22:21:34.291Z,100788.78
2022-09-30T22:24:04.146Z,100787.91
2022-09-30T22:26:32.945Z,100794.34
2022-09-30T22:29:06.198Z,100794.50
2022-09-30T22:31:34.091Z,100799.09
2022-09-30T22:34:22.101Z,100794.34
2022-09-30T22:37:07.613Z,100798.81
2022-09-30T22:39:35.336Z,100795.38
2022-09-30T22:42:03.320Z,100797.22
2022-09-30T22:44:35.619Z,100797.53
2022-09-30T22:47:03.621Z,100802.13
2022-09-30T22:49:34.366Z,100798.81
2022-09-30T22:52:03.704Z,100800.84
2022-09-30T22:54:31.177Z,100793.84
2022-09-30T22:57:01.244Z,100802.00
2022-09-30T22:59:29.352Z,100802.38
2022-09-30T23:01:57.230Z,100800.41
2022-09-30T23:04:26.065Z,100799.00
2022-09-30T23:06:55.396Z,100806.50
2022-09-30T23:09:23.556Z,100805.94
2022-09-30T23:11:55.013Z,100807.97
2022-09-30T23:14:22.866Z,100799.94
2022-09-30T23:16:50.827Z,100809.97
2022-09-30T23:19:18.828Z,100819.13
2022-09-30T23:21:46.263Z,100812.00
2022-09-30T23:24:15.746Z,100828.44
2022-09-30T23:26:43.621Z,100818.72
2022-09-30T23:29:12.757Z,100816.88
2022-09-30T23:31:40.712Z,100818.00
2022-09-30T23:34:08.079Z,100823.59
2022-09-30T23:36:37.237Z,100822.59
2022-09-30T23:39:12.606Z,100824.47
2022-09-30T23:41:40.143Z,100835.16
2022-09-30T23:44:09.693Z,100823.44
2022-09-30T23:46:37.069Z,100820.88
2022-09-30T23:49:05.867Z,100823.59
2022-09-30T23:51:34.374Z,100823.75
2022-09-30T23:54:05.551Z,100830.06
2022-09-30T23:56:33.508Z,100831.75
2022-09-30T23:59:00.730Z,100829.72
